sensor_id;sensor_type;location;lat;lon;timestamp;P1;durP1;ratioP1;P2;durP2;ratioP2
75230;SDS011;63814;50.118;8.714;2022-10-24T00:01:27;16.33;;;10.87;;
75230;SDS011;63814;50.118;8.714;2022-10-24T00:03:56;13.17;;;8.90;;
75230;SDS011;63814;50.118;8.714;2022-10-24T00:06:22;16.30;;;11.33;;
75230;SDS011;63814;50.118;8.714;2022-10-24T00:08:49;15.40;;;10.87;;
75230;SDS011;63814;50.118;8.714;2022-10-24T00:11:17;13.20;;;9.83;;
75230;SDS011;63814;50.118;8.714;2022-10-24T00:13:44;18.43;;;9.70;;
75230;SDS011;63814;50.118;8.714;2022-10-24T00:16:11;16.90;;;10.90;;
75230;SDS011;63814;50.118;8.714;2022-10-24T00:18:38;16.27;;;10.07;;
75230;SDS011;63814;50.118;8.714;2022-10-24T00:21:06;15.27;;;9.90;;
75230;SDS011;63814;50.118;8.714;2022-10-24T00:23:33;14.87;;;9.87;;
75230;SDS011;63814;50.118;8.714;2022-10-24T00:26:00;15.40;;;9.73;;
75230;SDS011;63814;50.118;8.714;2022-10-24T00:28:28;13.80;;;9.80;;
75230;SDS011;63814;50.118;8.714;2022-10-24T00:30:55;15.70;;;10.03;;
75230;SDS011;63814;50.118;8.714;2022-10-24T00:33:22;13.13;;;9.70;;
75230;SDS011;63814;50.118;8.714;2022-10-24T00:35:49;12.03;;;9.07;;
75230;SDS011;63814;50.118;8.714;2022-10-24T00:38:17;10.97;;;8.67;;
75230;SDS011;63814;50.118;8.714;2022-10-24T00:40:43;13.10;;;8.87;;
75230;SDS011;63814;50.118;8.714;2022-10-24T00:43:14;13.83;;;9.90;;
75230;SDS011;63814;50.118;8.714;2022-10-24T00:45:44;14.17;;;9.63;;
75230;SDS011;63814;50.118;8.714;2022-10-24T00:48:14;14.73;;;9.37;;
75230;SDS011;63814;50.118;8.714;2022-10-24T00:50:44;11.53;;;9.03;;
75230;SDS011;63814;50.118;8.714;2022-10-24T00:53:12;15.87;;;10.17;;
75230;SDS011;63814;50.118;8.714;2022-10-24T00:55:41;12.97;;;9.20;;
75230;SDS011;63814;50.118;8.714;2022-10-24T00:58:08;16.63;;;9.40;;
75230;SDS011;63814;50.118;8.714;2022-10-24T01:00:36;11.83;;;8.63;;
75230;SDS011;63814;50.118;8.714;2022-10-24T01:03:02;13.60;;;9.13;;
75230;SDS011;63814;50.118;8.714;2022-10-24T01:05:30;12.43;;;7.70;;
75230;SDS011;63814;50.118;8.714;2022-10-24T01:08:03;12.60;;;9.03;;
75230;SDS011;63814;50.118;8.714;2022-10-24T01:10:37;15.53;;;9.03;;
75230;SDS011;63814;50.118;8.714;2022-10-24T01:13:17;12.50;;;8.60;;
75230;SDS011;63814;50.118;8.714;2022-10-24T01:15:52;9.67;;;7.53;;
75230;SDS011;63814;50.118;8.714;2022-10-24T01:18:30;11.37;;;7.83;;
75230;SDS011;63814;50.118;8.714;2022-10-24T01:27:18;19.87;;;8.20;;
75230;SDS011;63814;50.118;8.714;2022-10-24T01:30:00;15.13;;;9.20;;
75230;SDS011;63814;50.118;8.714;2022-10-24T01:32:31;16.53;;;7.97;;
75230;SDS011;63814;50.118;8.714;2022-10-24T01:35:03;14.80;;;7.90;;
75230;SDS011;63814;50.118;8.714;2022-10-24T01:37:36;11.23;;;8.27;;
75230;SDS011;63814;50.118;8.714;2022-10-24T01:40:08;11.83;;;7.83;;
75230;SDS011;63814;50.118;8.714;2022-10-24T01:42:39;10.90;;;7.80;;
75230;SDS011;63814;50.118;8.714;2022-10-24T01:45:12;14.70;;;8.93;;
75230;SDS011;63814;50.118;8.714;2022-10-24T01:47:45;10.00;;;8.00;;
75230;SDS011;63814;50.118;8.714;2022-10-24T01:50:15;13.77;;;7.70;;
75230;SDS011;63814;50.118;8.714;2022-10-24T01:52:45;10.37;;;7.20;;
75230;SDS011;63814;50.118;8.714;2022-10-24T01:55:13;12.53;;;9.20;;
75230;SDS011;63814;50.118;8.714;2022-10-24T01:57:39;12.87;;;7.77;;
75230;SDS011;63814;50.118;8.714;2022-10-24T02:00:08;10.70;;;8.40;;
75230;SDS011;63814;50.118;8.714;2022-10-24T02:02:41;13.07;;;7.93;;
75230;SDS011;63814;50.118;8.714;2022-10-24T02:05:10;11.50;;;8.17;;
75230;SDS011;63814;50.118;8.714;2022-10-24T02:07:41;11.20;;;8.17;;
75230;SDS011;63814;50.118;8.714;2022-10-24T02:10:09;14.93;;;7.40;;
75230;SDS011;63814;50.118;8.714;2022-10-24T02:12:40;12.17;;;7.57;;
75230;SDS011;63814;50.118;8.714;2022-10-24T02:15:13;12.23;;;8.13;;
75230;SDS011;63814;50.118;8.714;2022-10-24T02:17:45;9.07;;;7.33;;
75230;SDS011;63814;50.118;8.714;2022-10-24T02:20:11;10.33;;;6.43;;
75230;SDS011;63814;50.118;8.714;2022-10-24T02:22:40;14.20;;;7.67;;
75230;SDS011;63814;50.118;8.714;2022-10-24T02:25:12;10.60;;;6.13;;
75230;SDS011;63814;50.118;8.714;2022-10-24T02:27:45;9.03;;;6.87;;
75230;SDS011;63814;50.118;8.714;2022-10-24T02:30:16;9.47;;;6.73;;
75230;SDS011;63814;50.118;8.714;2022-10-24T02:32:46;10.67;;;7.17;;
75230;SDS011;63814;50.118;8.714;2022-10-24T02:35:16;13.80;;;7.53;;
75230;SDS011;63814;50.118;8.714;2022-10-24T02:37:46;10.70;;;7.37;;
75230;SDS011;63814;50.118;8.714;2022-10-24T02:40:17;13.90;;;7.20;;
75230;SDS011;63814;50.118;8.714;2022-10-24T02:42:45;9.93;;;6.23;;
75230;SDS011;63814;50.118;8.714;2022-10-24T02:45:15;11.80;;;7.27;;
75230;SDS011;63814;50.118;8.714;2022-10-24T02:47:43;13.37;;;7.50;;
75230;SDS011;63814;50.118;8.714;2022-10-24T02:50:10;13.67;;;7.80;;
75230;SDS011;63814;50.118;8.714;2022-10-24T02:52:38;13.93;;;8.43;;
75230;SDS011;63814;50.118;8.714;2022-10-24T02:55:06;13.83;;;7.40;;
75230;SDS011;63814;50.118;8.714;2022-10-24T02:57:33;14.80;;;9.17;;
75230;SDS011;63814;50.118;8.714;2022-10-24T03:00:00;11.47;;;8.23;;
75230;SDS011;63814;50.118;8.714;2022-10-24T03:02:28;11.40;;;7.90;;
75230;SDS011;63814;50.118;8.714;2022-10-24T03:04:54;14.40;;;8.27;;
75230;SDS011;63814;50.118;8.714;2022-10-24T03:07:21;13.80;;;8.13;;
75230;SDS011;63814;50.118;8.714;2022-10-24T03:09:47;14.07;;;8.53;;
75230;SDS011;63814;50.118;8.714;2022-10-24T03:12:14;11.90;;;7.30;;
75230;SDS011;63814;50.118;8.714;2022-10-24T03:14:41;13.07;;;8.00;;
75230;SDS011;63814;50.118;8.714;2022-10-24T03:17:08;12.77;;;8.20;;
75230;SDS011;63814;50.118;8.714;2022-10-24T03:19:36;15.20;;;7.80;;
75230;SDS011;63814;50.118;8.714;2022-10-24T03:22:02;13.23;;;7.97;;
75230;SDS011;63814;50.118;8.714;2022-10-24T03:24:29;17.43;;;7.77;;
75230;SDS011;63814;50.118;8.714;2022-10-24T03:26:56;16.07;;;8.33;;
75230;SDS011;63814;50.118;8.714;2022-10-24T03:29:22;12.07;;;7.70;;
75230;SDS011;63814;50.118;8.714;2022-10-24T03:31:49;16.73;;;8.47;;
75230;SDS011;63814;50.118;8.714;2022-10-24T03:34:15;15.90;;;7.77;;
75230;SDS011;63814;50.118;8.714;2022-10-24T03:36:43;14.30;;;7.87;;
75230;SDS011;63814;50.118;8.714;2022-10-24T03:39:09;15.57;;;8.07;;
75230;SDS011;63814;50.118;8.714;2022-10-24T03:41:36;15.70;;;7.83;;
75230;SDS011;63814;50.118;8.714;2022-10-24T03:44:03;12.67;;;7.03;;
75230;SDS011;63814;50.118;8.714;2022-10-24T03:46:29;13.23;;;7.30;;
75230;SDS011;63814;50.118;8.714;2022-10-24T03:48:56;13.43;;;7.57;;
75230;SDS011;63814;50.118;8.714;2022-10-24T03:51:22;13.87;;;7.53;;
75230;SDS011;63814;50.118;8.714;2022-10-24T03:53:50;14.03;;;7.33;;
75230;SDS011;63814;50.118;8.714;2022-10-24T03:56:16;12.00;;;8.10;;
75230;SDS011;63814;50.118;8.714;2022-10-24T03:58:43;13.20;;;7.70;;
75230;SDS011;63814;50.118;8.714;2022-10-24T04:01:10;14.87;;;7.50;;
75230;SDS011;63814;50.118;8.714;2022-10-24T04:03:41;16.30;;;7.60;;
75230;SDS011;63814;50.118;8.714;2022-10-24T04:06:08;15.83;;;8.30;;
75230;SDS011;63814;50.118;8.714;2022-10-24T04:08:34;13.23;;;7.50;;
75230;SDS011;63814;50.118;8.714;2022-10-24T04:11:02;11.73;;;7.47;;
75230;SDS011;63814;50.118;8.714;2022-10-24T04:13:29;13.27;;;7.87;;
75230;SDS011;63814;50.118;8.714;2022-10-24T04:15:57;14.50;;;8.93;;
75230;SDS011;63814;50.118;8.714;2022-10-24T04:18:23;12.50;;;7.53;;
75230;SDS011;63814;50.118;8.714;2022-10-24T04:20:50;10.27;;;8.13;;
75230;SDS011;63814;50.118;8.714;2022-10-24T04:23:16;12.63;;;7.53;;
75230;SDS011;63814;50.118;8.714;2022-10-24T04:25:43;10.80;;;7.27;;
75230;SDS011;63814;50.118;8.714;2022-10-24T04:28:12;11.30;;;7.07;;
75230;SDS011;63814;50.118;8.714;2022-10-24T04:30:38;11.37;;;7.03;;
75230;SDS011;63814;50.118;8.714;2022-10-24T04:33:05;11.40;;;7.70;;
75230;SDS011;63814;50.118;8.714;2022-10-24T04:35:31;14.50;;;7.73;;
75230;SDS011;63814;50.118;8.714;2022-10-24T04:37:58;10.77;;;6.93;;
75230;SDS011;63814;50.118;8.714;2022-10-24T04:40:24;11.33;;;7.50;;
75230;SDS011;63814;50.118;8.714;2022-10-24T04:42:51;12.60;;;7.40;;
75230;SDS011;63814;50.118;8.714;2022-10-24T04:45:18;17.80;;;8.13;;
75230;SDS011;63814;50.118;8.714;2022-10-24T04:47:45;13.43;;;7.47;;
75230;SDS011;63814;50.118;8.714;2022-10-24T04:50:11;14.40;;;7.73;;
75230;SDS011;63814;50.118;8.714;2022-10-24T04:52:38;14.13;;;8.13;;
75230;SDS011;63814;50.118;8.714;2022-10-24T04:55:05;12.90;;;7.67;;
75230;SDS011;63814;50.118;8.714;2022-10-24T04:57:32;11.70;;;7.50;;
75230;SDS011;63814;50.118;8.714;2022-10-24T04:59:58;14.57;;;7.63;;
75230;SDS011;63814;50.118;8.714;2022-10-24T05:02:26;11.57;;;7.77;;
75230;SDS011;63814;50.118;8.714;2022-10-24T05:04:53;15.37;;;7.80;;
75230;SDS011;63814;50.118;8.714;2022-10-24T05:07:19;12.03;;;7.67;;
75230;SDS011;63814;50.118;8.714;2022-10-24T05:09:46;13.77;;;7.87;;
75230;SDS011;63814;50.118;8.714;2022-10-24T05:12:12;12.80;;;8.20;;
75230;SDS011;63814;50.118;8.714;2022-10-24T05:14:39;16.60;;;8.57;;
75230;SDS011;63814;50.118;8.714;2022-10-24T05:17:05;12.47;;;7.20;;
75230;SDS011;63814;50.118;8.714;2022-10-24T05:19:33;13.27;;;8.33;;
75230;SDS011;63814;50.118;8.714;2022-10-24T05:22:00;15.50;;;7.73;;
75230;SDS011;63814;50.118;8.714;2022-10-24T05:24:26;20.27;;;7.80;;
75230;SDS011;63814;50.118;8.714;2022-10-24T05:26:54;15.47;;;7.87;;
75230;SDS011;63814;50.118;8.714;2022-10-24T05:29:20;12.50;;;7.63;;
75230;SDS011;63814;50.118;8.714;2022-10-24T05:31:47;17.67;;;7.30;;
75230;SDS011;63814;50.118;8.714;2022-10-24T05:34:13;19.03;;;8.07;;
75230;SDS011;63814;50.118;8.714;2022-10-24T05:36:41;18.47;;;7.73;;
75230;SDS011;63814;50.118;8.714;2022-10-24T05:39:08;14.53;;;8.07;;
75230;SDS011;63814;50.118;8.714;2022-10-24T05:41:34;16.47;;;7.87;;
75230;SDS011;63814;50.118;8.714;2022-10-24T05:44:01;12.70;;;7.57;;
75230;SDS011;63814;50.118;8.714;2022-10-24T05:46:27;18.80;;;6.63;;
75230;SDS011;63814;50.118;8.714;2022-10-24T05:48:54;13.10;;;6.33;;
75230;SDS011;63814;50.118;8.714;2022-10-24T05:51:20;33.33;;;9.70;;
75230;SDS011;63814;50.118;8.714;2022-10-24T05:53:48;21.20;;;8.07;;
75230;SDS011;63814;50.118;8.714;2022-10-24T05:56:15;16.13;;;7.87;;
75230;SDS011;63814;50.118;8.714;2022-10-24T05:58:41;18.40;;;8.77;;
75230;SDS011;63814;50.118;8.714;2022-10-24T06:01:07;18.03;;;7.53;;
75230;SDS011;63814;50.118;8.714;2022-10-24T06:03:34;15.83;;;7.70;;
75230;SDS011;63814;50.118;8.714;2022-10-24T06:06:04;13.97;;;8.43;;
75230;SDS011;63814;50.118;8.714;2022-10-24T06:08:32;14.50;;;7.80;;
75230;SDS011;63814;50.118;8.714;2022-10-24T06:11:00;14.47;;;6.93;;
75230;SDS011;63814;50.118;8.714;2022-10-24T06:13:27;10.80;;;6.53;;
75230;SDS011;63814;50.118;8.714;2022-10-24T06:15:54;17.10;;;6.87;;
75230;SDS011;63814;50.118;8.714;2022-10-24T06:18:20;16.03;;;7.30;;
75230;SDS011;63814;50.118;8.714;2022-10-24T06:20:47;18.50;;;9.77;;
75230;SDS011;63814;50.118;8.714;2022-10-24T06:23:13;25.03;;;13.87;;
75230;SDS011;63814;50.118;8.714;2022-10-24T06:25:40;27.90;;;11.20;;
75230;SDS011;63814;50.118;8.714;2022-10-24T06:28:08;15.27;;;11.37;;
75230;SDS011;63814;50.118;8.714;2022-10-24T06:30:38;15.93;;;9.10;;
75230;SDS011;63814;50.118;8.714;2022-10-24T06:33:05;21.03;;;11.27;;
75230;SDS011;63814;50.118;8.714;2022-10-24T06:35:31;15.93;;;9.13;;
75230;SDS011;63814;50.118;8.714;2022-10-24T06:37:57;21.30;;;9.90;;
75230;SDS011;63814;50.118;8.714;2022-10-24T06:40:24;29.50;;;13.37;;
75230;SDS011;63814;50.118;8.714;2022-10-24T06:42:50;25.80;;;10.87;;
75230;SDS011;63814;50.118;8.714;2022-10-24T06:45:18;29.37;;;9.47;;
75230;SDS011;63814;50.118;8.714;2022-10-24T06:47:45;22.47;;;8.87;;
75230;SDS011;63814;50.118;8.714;2022-10-24T06:50:12;23.97;;;10.97;;
75230;SDS011;63814;50.118;8.714;2022-10-24T06:52:38;21.63;;;8.83;;
75230;SDS011;63814;50.118;8.714;2022-10-24T06:55:05;25.07;;;9.33;;
75230;SDS011;63814;50.118;8.714;2022-10-24T06:57:32;33.53;;;12.00;;
75230;SDS011;63814;50.118;8.714;2022-10-24T06:59:59;26.90;;;12.57;;
75230;SDS011;63814;50.118;8.714;2022-10-24T07:02:27;26.00;;;11.63;;
75230;SDS011;63814;50.118;8.714;2022-10-24T07:04:53;29.57;;;12.17;;
75230;SDS011;63814;50.118;8.714;2022-10-24T07:07:22;34.13;;;16.87;;
75230;SDS011;63814;50.118;8.714;2022-10-24T07:09:52;26.43;;;12.40;;
75230;SDS011;63814;50.118;8.714;2022-10-24T07:12:20;25.80;;;11.73;;
75230;SDS011;63814;50.118;8.714;2022-10-24T07:14:47;21.93;;;12.00;;
75230;SDS011;63814;50.118;8.714;2022-10-24T07:17:14;29.67;;;12.60;;
75230;SDS011;63814;50.118;8.714;2022-10-24T07:19:43;22.13;;;10.60;;
75230;SDS011;63814;50.118;8.714;2022-10-24T07:22:10;26.17;;;12.63;;
75230;SDS011;63814;50.118;8.714;2022-10-24T07:24:36;20.60;;;9.77;;
75230;SDS011;63814;50.118;8.714;2022-10-24T07:27:03;19.20;;;9.83;;
75230;SDS011;63814;50.118;8.714;2022-10-24T07:29:29;23.43;;;11.37;;
75230;SDS011;63814;50.118;8.714;2022-10-24T07:31:56;25.97;;;12.90;;
75230;SDS011;63814;50.118;8.714;2022-10-24T07:34:23;21.93;;;9.67;;
75230;SDS011;63814;50.118;8.714;2022-10-24T07:36:51;25.63;;;9.07;;
75230;SDS011;63814;50.118;8.714;2022-10-24T07:39:18;15.67;;;7.93;;
75230;SDS011;63814;50.118;8.714;2022-10-24T07:41:44;19.57;;;8.20;;
75230;SDS011;63814;50.118;8.714;2022-10-24T07:44:11;17.17;;;8.47;;
75230;SDS011;63814;50.118;8.714;2022-10-24T07:46:38;16.67;;;8.10;;
75230;SDS011;63814;50.118;8.714;2022-10-24T07:49:06;22.17;;;8.40;;
75230;SDS011;63814;50.118;8.714;2022-10-24T07:51:33;19.63;;;7.90;;
75230;SDS011;63814;50.118;8.714;2022-10-24T07:54:01;27.77;;;8.87;;
75230;SDS011;63814;50.118;8.714;2022-10-24T07:56:27;17.57;;;7.33;;
75230;SDS011;63814;50.118;8.714;2022-10-24T07:58:54;23.10;;;8.20;;
75230;SDS011;63814;50.118;8.714;2022-10-24T08:01:22;28.33;;;8.83;;
75230;SDS011;63814;50.118;8.714;2022-10-24T08:03:50;17.43;;;7.40;;
75230;SDS011;63814;50.118;8.714;2022-10-24T08:06:18;16.13;;;6.80;;
75230;SDS011;63814;50.118;8.714;2022-10-24T08:08:45;29.37;;;10.43;;
75230;SDS011;63814;50.118;8.714;2022-10-24T08:11:14;25.37;;;10.00;;
75230;SDS011;63814;50.118;8.714;2022-10-24T08:13:42;15.93;;;7.37;;
75230;SDS011;63814;50.118;8.714;2022-10-24T08:16:10;18.70;;;6.90;;
75230;SDS011;63814;50.118;8.714;2022-10-24T08:18:37;19.63;;;6.80;;
75230;SDS011;63814;50.118;8.714;2022-10-24T08:21:04;19.23;;;7.07;;
75230;SDS011;63814;50.118;8.714;2022-10-24T08:23:32;17.43;;;5.93;;
75230;SDS011;63814;50.118;8.714;2022-10-24T08:26:02;13.43;;;6.93;;
75230;SDS011;63814;50.118;8.714;2022-10-24T08:28:31;16.53;;;6.43;;
75230;SDS011;63814;50.118;8.714;2022-10-24T08:30:58;15.77;;;6.00;;
75230;SDS011;63814;50.118;8.714;2022-10-24T08:33:26;17.37;;;6.27;;
75230;SDS011;63814;50.118;8.714;2022-10-24T08:35:53;19.07;;;7.17;;
75230;SDS011;63814;50.118;8.714;2022-10-24T08:38:23;19.17;;;6.20;;
75230;SDS011;63814;50.118;8.714;2022-10-24T08:40:49;13.20;;;5.23;;
75230;SDS011;63814;50.118;8.714;2022-10-24T08:43:16;13.63;;;6.20;;
75230;SDS011;63814;50.118;8.714;2022-10-24T08:45:48;16.60;;;6.43;;
75230;SDS011;63814;50.118;8.714;2022-10-24T08:48:25;14.37;;;6.13;;
75230;SDS011;63814;50.118;8.714;2022-10-24T08:50:56;19.23;;;6.13;;
75230;SDS011;63814;50.118;8.714;2022-10-24T08:53:29;14.37;;;6.13;;
75230;SDS011;63814;50.118;8.714;2022-10-24T08:55:58;13.70;;;5.37;;
75230;SDS011;63814;50.118;8.714;2022-10-24T08:58:26;21.43;;;6.10;;
75230;SDS011;63814;50.118;8.714;2022-10-24T09:00:59;17.87;;;5.90;;
75230;SDS011;63814;50.118;8.714;2022-10-24T09:03:28;19.73;;;6.53;;
75230;SDS011;63814;50.118;8.714;2022-10-24T09:05:59;17.20;;;6.07;;
75230;SDS011;63814;50.118;8.714;2022-10-24T09:08:29;14.80;;;5.57;;
75230;SDS011;63814;50.118;8.714;2022-10-24T09:11:01;15.60;;;5.10;;
75230;SDS011;63814;50.118;8.714;2022-10-24T09:13:29;19.30;;;5.63;;
75230;SDS011;63814;50.118;8.714;2022-10-24T09:15:59;19.00;;;6.20;;
75230;SDS011;63814;50.118;8.714;2022-10-24T09:18:26;16.80;;;5.30;;
75230;SDS011;63814;50.118;8.714;2022-10-24T09:20:56;22.30;;;5.57;;
75230;SDS011;63814;50.118;8.714;2022-10-24T09:23:23;19.80;;;5.27;;
75230;SDS011;63814;50.118;8.714;2022-10-24T09:25:52;19.30;;;5.53;;
75230;SDS011;63814;50.118;8.714;2022-10-24T09:28:21;15.43;;;5.00;;
75230;SDS011;63814;50.118;8.714;2022-10-24T09:30:49;15.80;;;5.10;;
75230;SDS011;63814;50.118;8.714;2022-10-24T09:33:25;13.67;;;4.90;;
75230;SDS011;63814;50.118;8.714;2022-10-24T09:35:54;15.07;;;5.57;;
75230;SDS011;63814;50.118;8.714;2022-10-24T09:38:26;18.00;;;5.03;;
75230;SDS011;63814;50.118;8.714;2022-10-24T09:40:56;12.77;;;4.30;;
75230;SDS011;63814;50.118;8.714;2022-10-24T09:43:29;23.27;;;5.10;;
75230;SDS011;63814;50.118;8.714;2022-10-24T09:46:00;11.87;;;4.70;;
75230;SDS011;63814;50.118;8.714;2022-10-24T09:48:38;16.37;;;5.30;;
75230;SDS011;63814;50.118;8.714;2022-10-24T09:51:16;16.70;;;4.32;;
75230;SDS011;63814;50.118;8.714;2022-10-24T09:53:56;11.40;;;4.50;;
75230;SDS011;63814;50.118;8.714;2022-10-24T09:56:35;13.07;;;3.97;;
75230;SDS011;63814;50.118;8.714;2022-10-24T09:59:16;12.40;;;4.60;;
75230;SDS011;63814;50.118;8.714;2022-10-24T10:01:44;12.87;;;4.77;;
75230;SDS011;63814;50.118;8.714;2022-10-24T10:04:15;15.00;;;4.78;;
75230;SDS011;63814;50.118;8.714;2022-10-24T10:06:44;17.27;;;4.50;;
75230;SDS011;63814;50.118;8.714;2022-10-24T10:09:13;14.90;;;3.77;;
75230;SDS011;63814;50.118;8.714;2022-10-24T10:11:41;13.20;;;4.00;;
75230;SDS011;63814;50.118;8.714;2022-10-24T10:14:18;15.55;;;4.22;;
75230;SDS011;63814;50.118;8.714;2022-10-24T10:16:49;14.35;;;4.03;;
75230;SDS011;63814;50.118;8.714;2022-10-24T10:19:25;10.85;;;3.70;;
75230;SDS011;63814;50.118;8.714;2022-10-24T10:21:54;12.57;;;4.00;;
75230;SDS011;63814;50.118;8.714;2022-10-24T10:24:23;10.55;;;3.90;;
75230;SDS011;63814;50.118;8.714;2022-10-24T10:26:51;14.20;;;3.80;;
75230;SDS011;63814;50.118;8.714;2022-10-24T10:29:21;12.43;;;4.10;;
75230;SDS011;63814;50.118;8.714;2022-10-24T10:31:49;11.98;;;3.85;;
75230;SDS011;63814;50.118;8.714;2022-10-24T10:34:23;14.07;;;4.38;;
75230;SDS011;63814;50.118;8.714;2022-10-24T10:39:58;14.15;;;3.67;;
75230;SDS011;63814;50.118;8.714;2022-10-24T10:42:38;8.07;;;3.50;;
75230;SDS011;63814;50.118;8.714;2022-10-24T10:45:15;9.13;;;3.40;;
75230;SDS011;63814;50.118;8.714;2022-10-24T10:47:56;13.73;;;3.60;;
75230;SDS011;63814;50.118;8.714;2022-10-24T10:50:36;8.45;;;3.50;;
75230;SDS011;63814;50.118;8.714;2022-10-24T10:53:10;14.00;;;3.50;;
75230;SDS011;63814;50.118;8.714;2022-10-24T10:55:51;17.55;;;3.83;;
75230;SDS011;63814;50.118;8.714;2022-10-24T10:58:27;10.27;;;3.42;;
75230;SDS011;63814;50.118;8.714;2022-10-24T11:01:04;10.38;;;3.58;;
75230;SDS011;63814;50.118;8.714;2022-10-24T11:03:39;9.25;;;3.67;;
75230;SDS011;63814;50.118;8.714;2022-10-24T11:06:18;12.35;;;3.38;;
75230;SDS011;63814;50.118;8.714;2022-10-24T11:11:56;9.85;;;3.80;;
75230;SDS011;63814;50.118;8.714;2022-10-24T11:14:28;11.52;;;3.30;;
75230;SDS011;63814;50.118;8.714;2022-10-24T11:17:03;11.20;;;3.28;;
75230;SDS011;63814;50.118;8.714;2022-10-24T11:19:38;7.22;;;3.42;;
75230;SDS011;63814;50.118;8.714;2022-10-24T11:22:12;13.35;;;2.95;;
75230;SDS011;63814;50.118;8.714;2022-10-24T11:24:46;14.50;;;3.97;;
75230;SDS011;63814;50.118;8.714;2022-10-24T11:27:18;9.95;;;3.63;;
75230;SDS011;63814;50.118;8.714;2022-10-24T11:29:52;11.20;;;3.75;;
75230;SDS011;63814;50.118;8.714;2022-10-24T11:32:23;12.38;;;3.33;;
75230;SDS011;63814;50.118;8.714;2022-10-24T11:34:57;11.00;;;3.45;;
75230;SDS011;63814;50.118;8.714;2022-10-24T11:37:30;10.05;;;3.10;;
75230;SDS011;63814;50.118;8.714;2022-10-24T11:39:59;6.43;;;2.88;;
75230;SDS011;63814;50.118;8.714;2022-10-24T11:42:31;9.25;;;3.00;;
75230;SDS011;63814;50.118;8.714;2022-10-24T11:45:03;8.70;;;3.30;;
75230;SDS011;63814;50.118;8.714;2022-10-24T11:50:27;8.45;;;3.00;;
75230;SDS011;63814;50.118;8.714;2022-10-24T11:53:05;14.60;;;3.00;;
75230;SDS011;63814;50.118;8.714;2022-10-24T11:55:42;10.52;;;3.35;;
75230;SDS011;63814;50.118;8.714;2022-10-24T11:58:13;8.77;;;2.63;;
75230;SDS011;63814;50.118;8.714;2022-10-24T12:00:52;10.35;;;2.63;;
75230;SDS011;63814;50.118;8.714;2022-10-24T12:03:34;5.25;;;2.33;;
75230;SDS011;63814;50.118;8.714;2022-10-24T12:06:28;15.65;;;5.90;;
75230;SDS011;63814;50.118;8.714;2022-10-24T12:12:13;8.43;;;2.78;;
75230;SDS011;63814;50.118;8.714;2022-10-24T12:14:52;11.52;;;2.80;;
75230;SDS011;63814;50.118;8.714;2022-10-24T12:17:35;9.60;;;3.35;;
75230;SDS011;63814;50.118;8.714;2022-10-24T12:20:11;10.80;;;3.05;;
75230;SDS011;63814;50.118;8.714;2022-10-24T12:22:41;7.53;;;2.67;;
75230;SDS011;63814;50.118;8.714;2022-10-24T12:25:16;9.27;;;2.63;;
75230;SDS011;63814;50.118;8.714;2022-10-24T12:27:52;8.25;;;2.55;;
75230;SDS011;63814;50.118;8.714;2022-10-24T12:30:20;9.93;;;2.60;;
75230;SDS011;63814;50.118;8.714;2022-10-24T12:32:50;10.18;;;2.72;;
75230;SDS011;63814;50.118;8.714;2022-10-24T12:41:42;6.88;;;2.25;;
75230;SDS011;63814;50.118;8.714;2022-10-24T12:49:53;7.10;;;2.30;;
75230;SDS011;63814;50.118;8.714;2022-10-24T12:55:27;6.30;;;2.03;;
75230;SDS011;63814;50.118;8.714;2022-10-24T12:57:55;5.85;;;1.70;;
75230;SDS011;63814;50.118;8.714;2022-10-24T13:00:25;6.15;;;1.80;;
75230;SDS011;63814;50.118;8.714;2022-10-24T13:03:02;6.72;;;1.92;;
75230;SDS011;63814;50.118;8.714;2022-10-24T13:05:35;7.45;;;2.22;;
75230;SDS011;63814;50.118;8.714;2022-10-24T13:08:16;5.03;;;1.88;;
75230;SDS011;63814;50.118;8.714;2022-10-24T13:11:00;5.45;;;1.92;;
75230;SDS011;63814;50.118;8.714;2022-10-24T13:13:47;7.05;;;2.10;;
75230;SDS011;63814;50.118;8.714;2022-10-24T13:16:29;6.43;;;1.83;;
75230;SDS011;63814;50.118;8.714;2022-10-24T13:19:03;4.90;;;2.13;;
75230;SDS011;63814;50.118;8.714;2022-10-24T13:21:42;5.88;;;1.77;;
75230;SDS011;63814;50.118;8.714;2022-10-24T13:24:18;9.00;;;1.98;;
75230;SDS011;63814;50.118;8.714;2022-10-24T13:29:58;7.80;;;2.10;;
75230;SDS011;63814;50.118;8.714;2022-10-24T13:32:32;4.28;;;1.67;;
75230;SDS011;63814;50.118;8.714;2022-10-24T13:35:00;7.63;;;2.30;;
75230;SDS011;63814;50.118;8.714;2022-10-24T13:37:29;7.20;;;1.98;;
75230;SDS011;63814;50.118;8.714;2022-10-24T13:40:02;4.72;;;1.77;;
75230;SDS011;63814;50.118;8.714;2022-10-24T13:42:35;5.57;;;1.90;;
75230;SDS011;63814;50.118;8.714;2022-10-24T13:45:14;6.88;;;2.05;;
75230;SDS011;63814;50.118;8.714;2022-10-24T13:47:49;5.50;;;1.88;;
75230;SDS011;63814;50.118;8.714;2022-10-24T13:50:19;6.95;;;1.83;;
75230;SDS011;63814;50.118;8.714;2022-10-24T13:52:49;6.65;;;1.85;;
75230;SDS011;63814;50.118;8.714;2022-10-24T13:55:21;9.80;;;1.95;;
75230;SDS011;63814;50.118;8.714;2022-10-24T13:57:52;5.43;;;1.92;;
75230;SDS011;63814;50.118;8.714;2022-10-24T14:00:22;5.80;;;1.63;;
75230;SDS011;63814;50.118;8.714;2022-10-24T14:02:52;2.97;;;1.55;;
75230;SDS011;63814;50.118;8.714;2022-10-24T14:05:26;8.63;;;1.90;;
75230;SDS011;63814;50.118;8.714;2022-10-24T14:07:56;5.65;;;1.83;;
75230;SDS011;63814;50.118;8.714;2022-10-24T14:10:23;5.05;;;1.90;;
75230;SDS011;63814;50.118;8.714;2022-10-24T14:12:51;8.00;;;1.88;;
75230;SDS011;63814;50.118;8.714;2022-10-24T14:15:22;6.30;;;2.00;;
75230;SDS011;63814;50.118;8.714;2022-10-24T14:17:53;4.28;;;1.67;;
75230;SDS011;63814;50.118;8.714;2022-10-24T14:20:23;6.60;;;2.05;;
75230;SDS011;63814;50.118;8.714;2022-10-24T14:22:51;3.65;;;1.45;;
75230;SDS011;63814;50.118;8.714;2022-10-24T14:25:25;4.65;;;1.80;;
75230;SDS011;63814;50.118;8.714;2022-10-24T14:27:56;5.35;;;1.60;;
75230;SDS011;63814;50.118;8.714;2022-10-24T14:30:25;3.22;;;1.67;;
75230;SDS011;63814;50.118;8.714;2022-10-24T14:33:14;10.00;;;2.58;;
75230;SDS011;63814;50.118;8.714;2022-10-24T14:35:45;5.30;;;1.75;;
75230;SDS011;63814;50.118;8.714;2022-10-24T14:38:13;4.15;;;1.50;;
75230;SDS011;63814;50.118;8.714;2022-10-24T14:40:41;4.32;;;1.50;;
75230;SDS011;63814;50.118;8.714;2022-10-24T14:43:10;3.30;;;1.58;;
75230;SDS011;63814;50.118;8.714;2022-10-24T14:45:40;3.78;;;1.48;;
75230;SDS011;63814;50.118;8.714;2022-10-24T14:48:14;5.03;;;1.70;;
75230;SDS011;63814;50.118;8.714;2022-10-24T14:50:48;4.70;;;1.95;;
75230;SDS011;63814;50.118;8.714;2022-10-24T14:53:19;4.10;;;1.35;;
75230;SDS011;63814;50.118;8.714;2022-10-24T14:55:49;6.07;;;1.58;;
75230;SDS011;63814;50.118;8.714;2022-10-24T14:58:19;6.28;;;1.50;;
75230;SDS011;63814;50.118;8.714;2022-10-24T15:00:47;5.32;;;1.83;;
75230;SDS011;63814;50.118;8.714;2022-10-24T15:03:15;7.22;;;1.67;;
75230;SDS011;63814;50.118;8.714;2022-10-24T15:05:51;5.30;;;2.20;;
75230;SDS011;63814;50.118;8.714;2022-10-24T15:08:23;4.15;;;1.77;;
75230;SDS011;63814;50.118;8.714;2022-10-24T15:11:02;3.55;;;1.40;;
75230;SDS011;63814;50.118;8.714;2022-10-24T15:13:32;4.60;;;1.65;;
75230;SDS011;63814;50.118;8.714;2022-10-24T15:16:16;4.85;;;1.60;;
75230;SDS011;63814;50.118;8.714;2022-10-24T15:18:46;5.43;;;1.73;;
75230;SDS011;63814;50.118;8.714;2022-10-24T15:21:14;4.18;;;1.65;;
75230;SDS011;63814;50.118;8.714;2022-10-24T15:23:44;3.92;;;1.60;;
75230;SDS011;63814;50.118;8.714;2022-10-24T15:26:16;2.40;;;1.30;;
75230;SDS011;63814;50.118;8.714;2022-10-24T15:28:46;3.70;;;1.33;;